createdAt,value
2017-12-13T00:00:39.224Z,2.82
2017-12-13T00:01:49.373Z,2.76
2017-12-13T00:02:59.065Z,2.73
2017-12-13T00:04:09.059Z,2.7
2017-12-13T00:05:19.092Z,2.8
2017-12-13T00:06:28.511Z,2.8
2017-12-13T00:07:38.199Z,2.77
2017-12-13T00:08:47.883Z,2.76
2017-12-13T00:09:58.074Z,2.73
2017-12-13T00:11:07.757Z,2.75
2017-12-13T00:12:17.454Z,2.77
2017-12-13T00:13:27.392Z,2.7
2017-12-13T00:14:36.557Z,2.79
2017-12-13T00:15:46.500Z,2.72
2017-12-13T00:16:55.982Z,2.69
2017-12-13T00:18:05.923Z,2.65
2017-12-13T00:19:15.614Z,2.69
2017-12-13T00:20:25.048Z,2.69
2017-12-13T00:21:34.727Z,2.65
2017-12-13T00:22:43.907Z,2.65
2017-12-13T00:23:53.340Z,2.76
2017-12-13T00:25:03.292Z,2.65
2017-12-13T00:26:13.236Z,2.69
2017-12-13T00:27:22.931Z,2.65
2017-12-13T00:28:32.884Z,2.69
2017-12-13T00:29:42.829Z,2.7
2017-12-13T00:30:52.367Z,2.64
2017-12-13T00:32:02.069Z,2.69
2017-12-13T00:33:12.007Z,2.75
2017-12-13T00:34:21.712Z,2.72
2017-12-13T00:35:31.396Z,2.73
2017-12-13T00:36:41.324Z,2.7
2017-12-13T00:37:51.085Z,2.73
2017-12-13T00:39:01.049Z,2.69
2017-12-13T00:40:10.748Z,2.7
2017-12-13T00:41:20.721Z,2.73
2017-12-13T00:42:30.142Z,2.69
2017-12-13T00:43:39.826Z,2.7
2017-12-13T00:44:49.773Z,2.77
2017-12-13T00:45:59.210Z,2.77
2017-12-13T00:47:08.654Z,2.75
2017-12-13T00:48:18.076Z,2.7
2017-12-13T00:49:27.511Z,2.72
2017-12-13T00:50:36.927Z,2.68
2017-12-13T00:51:46.625Z,2.69
2017-12-13T00:52:56.050Z,2.68
2017-12-13T00:54:05.988Z,2.68
2017-12-13T00:55:15.936Z,2.59
2017-12-13T00:56:25.625Z,2.69
2017-12-13T00:57:35.846Z,2.7
2017-12-13T00:58:45.780Z,2.61
2017-12-13T00:59:55.728Z,2.73
2017-12-13T01:01:05.415Z,2.65
2017-12-13T01:02:15.105Z,2.68
2017-12-13T01:03:25.042Z,2.68
2017-12-13T01:04:34.998Z,2.64
2017-12-13T01:05:44.940Z,2.68
2017-12-13T01:06:54.364Z,2.65
2017-12-13T01:08:04.054Z,2.62
2017-12-13T01:09:13.993Z,2.69
2017-12-13T01:10:23.685Z,2.64
2017-12-13T01:11:33.371Z,2.7
2017-12-13T01:12:43.060Z,2.62
2017-12-13T01:13:53.001Z,2.73
2017-12-13T01:15:02.966Z,2.72
2017-12-13T01:16:12.692Z,2.69
2017-12-13T01:17:22.455Z,2.7
2017-12-13T01:18:32.398Z,2.68
2017-12-13T01:19:42.368Z,2.69
2017-12-13T01:20:51.804Z,2.68
2017-12-13T01:22:01.234Z,2.69
2017-12-13T01:23:11.177Z,2.75
2017-12-13T01:24:20.614Z,2.75
2017-12-13T01:25:30.317Z,2.77
2017-12-13T01:26:39.744Z,2.79
2017-12-13T01:27:49.435Z,2.77
2017-12-13T01:28:58.866Z,2.75
2017-12-13T01:30:08.556Z,2.75
2017-12-13T01:31:18.259Z,2.79
2017-12-13T01:32:27.954Z,2.7
2017-12-13T01:33:37.647Z,2.82
2017-12-13T01:34:47.586Z,2.82
2017-12-13T01:35:57.531Z,2.85
2017-12-13T01:37:07.474Z,2.88
2017-12-13T01:38:17.167Z,2.77
2017-12-13T01:39:26.598Z,2.88
2017-12-13T01:40:36.549Z,2.83
2017-12-13T01:41:46.491Z,2.87
2017-12-13T01:42:56.448Z,2.93
2017-12-13T01:44:06.406Z,2.93
2017-12-13T01:45:16.088Z,2.9
2017-12-13T01:46:26.043Z,2.91
2017-12-13T01:47:36.018Z,3
2017-12-13T01:48:45.433Z,2.91
2017-12-13T01:49:55.123Z,2.91
2017-12-13T01:51:04.808Z,2.93
2017-12-13T01:52:14.748Z,2.91
2017-12-13T01:53:24.686Z,2.97
2017-12-13T01:54:34.110Z,2.98
2017-12-13T01:55:43.815Z,2.93
2017-12-13T01:56:53.749Z,2.93
2017-12-13T01:58:03.698Z,2.98
2017-12-13T01:59:13.640Z,2.93
2017-12-13T02:00:23.328Z,2.97
2017-12-13T02:01:33.013Z,2.98
2017-12-13T02:02:42.701Z,2.94
2017-12-13T02:03:52.648Z,2.87
2017-12-13T02:05:02.346Z,2.94
2017-12-13T02:06:12.135Z,2.91
2017-12-13T02:07:22.092Z,2.88
2017-12-13T02:08:31.776Z,2.83
2017-12-13T02:09:41.467Z,2.73
2017-12-13T02:10:51.455Z,2.73
2017-12-13T02:12:00.872Z,2.73
2017-12-13T02:13:10.823Z,2.65
2017-12-13T02:14:20.259Z,2.58
2017-12-13T02:15:30.212Z,2.58
2017-12-13T02:16:39.387Z,2.51
2017-12-13T02:17:49.341Z,2.51
2017-12-13T02:18:59.281Z,2.5
2017-12-13T02:20:08.976Z,2.5
2017-12-13T02:21:18.434Z,2.5
2017-12-13T02:22:28.375Z,2.47
2017-12-13T02:23:37.803Z,2.41
2017-12-13T02:24:47.472Z,2.32
2017-12-13T02:25:57.416Z,2.46
2017-12-13T02:27:07.094Z,2.28
2017-12-13T02:28:17.031Z,2.32
2017-12-13T02:29:26.719Z,2.26
2017-12-13T02:30:36.403Z,2.23
2017-12-13T02:31:46.349Z,2.32
2017-12-13T02:32:56.033Z,2.18
2017-12-13T02:34:05.977Z,2.1
2017-12-13T02:35:15.404Z,2.07
2017-12-13T02:36:25.368Z,2.05
2017-12-13T02:37:35.573Z,2.05
2017-12-13T02:38:45.255Z,1.97
2017-12-13T02:39:54.934Z,2.04
2017-12-13T02:41:04.625Z,1.89
2017-12-13T02:42:14.573Z,2.03
2017-12-13T02:43:23.999Z,2
2017-12-13T02:44:33.686Z,2.03
2017-12-13T02:45:43.386Z,1.97
2017-12-13T02:46:53.093Z,2.04
2017-12-13T02:48:03.044Z,2.03
2017-12-13T02:49:12.474Z,2.05
2017-12-13T02:50:22.403Z,2.07
2017-12-13T02:51:31.838Z,2.08
2017-12-13T02:52:41.525Z,1.98
2017-12-13T02:53:51.220Z,2.04
2017-12-13T02:55:01.163Z,2.04
2017-12-13T02:56:11.118Z,2.04
2017-12-13T02:57:20.293Z,2.05
2017-12-13T02:58:30.048Z,2.04
2017-12-13T02:59:39.740Z,2.15
2017-12-13T03:00:49.447Z,2.12
2017-12-13T03:01:58.865Z,2.18
2017-12-13T03:03:08.295Z,2.21
2017-12-13T03:04:17.720Z,2.21
2017-12-13T03:05:27.150Z,2.26
2017-12-13T03:06:37.096Z,2.25
2017-12-13T03:07:46.778Z,2.23
2017-12-13T03:08:57.024Z,2.18
2017-12-13T03:10:06.714Z,2.25
2017-12-13T03:11:16.393Z,2.26
2017-12-13T03:12:26.073Z,2.26
2017-12-13T03:13:35.753Z,2.3
2017-12-13T03:14:45.722Z,2.23
2017-12-13T03:15:55.665Z,2.26
2017-12-13T03:17:05.603Z,2.23
2017-12-13T03:18:15.543Z,2.25
2017-12-13T03:19:25.244Z,2.19
2017-12-13T03:20:35.217Z,2.28
2017-12-13T03:21:44.913Z,2.25
2017-12-13T03:22:54.640Z,2.21
2017-12-13T03:24:04.127Z,2.23
2017-12-13T03:25:13.821Z,2.15
2017-12-13T03:26:23.763Z,2.14
2017-12-13T03:27:32.930Z,2.18
2017-12-13T03:28:42.628Z,2.07
2017-12-13T03:29:52.562Z,2.01
2017-12-13T03:31:01.992Z,2.01
2017-12-13T03:32:11.681Z,2.04
2017-12-13T03:33:21.363Z,2.01
2017-12-13T03:34:30.539Z,1.93
2017-12-13T03:35:40.539Z,2
2017-12-13T03:36:50.490Z,1.93
2017-12-13T03:38:00.178Z,1.95
2017-12-13T03:39:10.116Z,1.89
2017-12-13T03:40:20.062Z,1.84
2017-12-13T03:41:29.750Z,1.78
2017-12-13T03:42:39.429Z,1.75
2017-12-13T03:43:49.107Z,1.78
2017-12-13T03:44:58.520Z,1.74
2017-12-13T03:46:08.204Z,1.64
2017-12-13T03:47:18.141Z,1.58
2017-12-13T03:48:27.574Z,1.6
2017-12-13T03:49:37.256Z,1.58
2017-12-13T03:50:46.932Z,1.49
2017-12-13T03:51:56.377Z,1.57
2017-12-13T03:53:06.059Z,1.5
2017-12-13T03:54:15.999Z,1.43
2017-12-13T03:55:25.951Z,1.45
2017-12-13T03:56:35.953Z,1.32
2017-12-13T03:57:45.629Z,1.43
2017-12-13T03:58:55.316Z,1.45
2017-12-13T04:00:05.262Z,1.43
2017-12-13T04:01:15.206Z,1.45
2017-12-13T04:02:25.163Z,1.49
2017-12-13T04:03:34.839Z,1.32
2017-12-13T04:04:44.537Z,1.4
2017-12-13T04:05:54.223Z,1.43
2017-12-13T04:07:03.909Z,1.45
2017-12-13T04:08:13.880Z,1.45
2017-12-13T04:09:23.560Z,1.32
2017-12-13T04:10:33.498Z,1.39
2017-12-13T04:11:43.177Z,1.42
2017-12-13T04:12:52.861Z,1.32
2017-12-13T04:14:02.539Z,1.27
2017-12-13T04:15:12.483Z,1.28
2017-12-13T04:16:22.157Z,1.27
2017-12-13T04:17:31.583Z,1.22
2017-12-13T04:18:41.514Z,1.24
2017-12-13T04:19:51.450Z,1.22
2017-12-13T04:21:01.396Z,1.25
2017-12-13T04:22:10.823Z,1.24
2017-12-13T04:23:20.506Z,1.16
2017-12-13T04:24:30.466Z,1.14
2017-12-13T04:25:40.404Z,1.14
2017-12-13T04:26:50.104Z,1.2
2017-12-13T04:27:59.796Z,1.14
2017-12-13T04:29:09.731Z,1.14
2017-12-13T04:30:19.409Z,1.09
2017-12-13T04:31:29.081Z,1.12
2017-12-13T04:32:39.012Z,1.16
2017-12-13T04:33:48.697Z,1.18
2017-12-13T04:34:58.640Z,1.16
2017-12-13T04:36:08.328Z,1.06
2017-12-13T04:37:18.495Z,1.03
2017-12-13T04:38:28.184Z,1.09
2017-12-13T04:39:38.122Z,1.06
2017-12-13T04:40:48.052Z,0.99
2017-12-13T04:41:57.996Z,0.96
2017-12-13T04:43:07.935Z,1.04
2017-12-13T04:44:17.864Z,0.92
2017-12-13T04:45:27.300Z,0.95
2017-12-13T04:46:37.231Z,1.02
2017-12-13T04:47:46.916Z,1.04
2017-12-13T04:48:56.338Z,0.95
2017-12-13T04:50:06.023Z,1.04
2017-12-13T04:51:15.708Z,0.89
2017-12-13T04:52:25.666Z,0.91
2017-12-13T04:53:35.347Z,0.91
2017-12-13T04:54:45.289Z,0.82
2017-12-13T04:55:54.970Z,0.85
2017-12-13T04:57:04.972Z,0.82
2017-12-13T04:58:14.406Z,0.84
2017-12-13T04:59:24.116Z,0.78
2017-12-13T05:00:33.806Z,0.81
2017-12-13T05:01:44.575Z,0.81
2017-12-13T05:02:53.995Z,0.82
2017-12-13T05:04:03.705Z,0.89
2017-12-13T05:05:13.429Z,0.85
2017-12-13T05:06:23.114Z,0.81
2017-12-13T05:07:33.049Z,0.81
2017-12-13T05:08:42.724Z,0.82
2017-12-13T05:09:52.661Z,0.81
2017-12-13T05:11:02.358Z,0.86
2017-12-13T05:12:12.304Z,0.81
2017-12-13T05:13:21.990Z,0.84
2017-12-13T05:14:31.925Z,0.81
2017-12-13T05:15:41.350Z,0.74
2017-12-13T05:16:50.774Z,0.85
2017-12-13T05:18:00.715Z,0.68
2017-12-13T05:19:10.396Z,0.74
2017-12-13T05:20:20.328Z,0.77
2017-12-13T05:21:30.015Z,0.81
2017-12-13T05:22:39.958Z,0.73
2017-12-13T05:23:49.637Z,0.76
2017-12-13T05:24:59.129Z,0.76
2017-12-13T05:26:08.849Z,0.67
2017-12-13T05:27:18.556Z,0.73
2017-12-13T05:28:28.512Z,0.71
2017-12-13T05:29:38.478Z,0.68
2017-12-13T05:30:48.419Z,0.66
2017-12-13T05:31:58.356Z,0.66
2017-12-13T05:33:08.054Z,0.59
2017-12-13T05:34:18.000Z,0.64
2017-12-13T05:35:27.677Z,0.58
2017-12-13T05:36:37.635Z,0.64
2017-12-13T05:37:47.058Z,0.63
2017-12-13T05:38:56.990Z,0.59
2017-12-13T05:40:06.955Z,0.61
2017-12-13T05:41:16.896Z,0.58
2017-12-13T05:42:26.914Z,0.52
2017-12-13T05:43:36.867Z,0.55
2017-12-13T05:44:46.560Z,0.52
2017-12-13T05:45:56.251Z,0.51
2017-12-13T05:47:06.185Z,0.52
2017-12-13T05:48:16.135Z,0.49
2017-12-13T05:49:26.084Z,0.59
2017-12-13T05:50:36.020Z,0.49
2017-12-13T05:51:45.701Z,0.55
2017-12-13T05:52:55.643Z,0.48
2017-12-13T05:54:04.802Z,0.48
2017-12-13T05:55:14.492Z,0.51
2017-12-13T05:56:23.914Z,0.44
2017-12-13T05:57:33.852Z,0.48
2017-12-13T05:58:43.548Z,0.48
2017-12-13T05:59:52.711Z,0.44
2017-12-13T06:01:02.397Z,0.4
2017-12-13T06:02:12.438Z,0.44
2017-12-13T06:03:22.140Z,0.4
2017-12-13T06:04:31.853Z,0.48
2017-12-13T06:05:41.815Z,0.51
2017-12-13T06:06:51.494Z,0.45
2017-12-13T06:08:01.172Z,0.39
2017-12-13T06:09:10.843Z,0.49
2017-12-13T06:10:20.529Z,0.47
2017-12-13T06:11:30.473Z,0.42
2017-12-13T06:12:40.419Z,0.48
2017-12-13T06:13:50.363Z,0.4
2017-12-13T06:14:59.789Z,0.39
2017-12-13T06:16:09.729Z,0.37
2017-12-13T06:17:19.666Z,0.47
2017-12-13T06:18:29.610Z,0.48
2017-12-13T06:19:39.561Z,0.37
2017-12-13T06:20:49.251Z,0.44
2017-12-13T06:21:58.943Z,0.4
2017-12-13T06:23:08.624Z,0.31
2017-12-13T06:24:18.306Z,0.34
2017-12-13T06:25:28.025Z,0.33
2017-12-13T06:26:37.460Z,0.31
2017-12-13T06:27:47.402Z,0.34
2017-12-13T06:28:57.584Z,0.3
2017-12-13T06:30:07.266Z,0.39
2017-12-13T06:31:16.953Z,0.31
2017-12-13T06:32:26.639Z,0.33
2017-12-13T06:33:36.587Z,0.34
2017-12-13T06:34:46.008Z,0.31
2017-12-13T06:35:55.686Z,0.31
2017-12-13T06:37:05.373Z,0.23
2017-12-13T06:38:15.057Z,0.27
2017-12-13T06:39:25.007Z,0.34
2017-12-13T06:40:34.727Z,0.24
2017-12-13T06:41:43.927Z,0.23
2017-12-13T06:42:53.597Z,0.18
2017-12-13T06:44:03.543Z,0.15
2017-12-13T06:45:13.226Z,0.23
2017-12-13T06:46:22.405Z,0.18
2017-12-13T06:47:32.105Z,0.13
2017-12-13T06:48:41.836Z,0.13
2017-12-13T06:49:51.536Z,0.15
2017-12-13T06:51:01.238Z,0.13
2017-12-13T06:52:11.169Z,0.08
2017-12-13T06:53:20.619Z,0.11
2017-12-13T06:54:30.056Z,0.11
2017-12-13T06:55:40.013Z,0.11
2017-12-13T06:56:49.458Z,0.11
2017-12-13T06:57:59.135Z,0.13
2017-12-13T06:59:08.862Z,-0.05
2017-12-13T07:00:18.807Z,0.15
2017-12-13T07:01:28.816Z,0.06
2017-12-13T07:02:38.500Z,-0.03
2017-12-13T07:03:48.442Z,-0.03
2017-12-13T07:04:58.124Z,0.02
2017-12-13T07:06:08.308Z,0.08
2017-12-13T07:07:17.992Z,0.01
2017-12-13T07:08:27.672Z,0
2017-12-13T07:09:37.655Z,0.01
2017-12-13T07:10:47.087Z,-0.03
2017-12-13T07:11:56.816Z,-0.05
2017-12-13T07:13:06.771Z,-0.06
2017-12-13T07:14:16.474Z,-0.06
2017-12-13T07:15:26.411Z,-0.05
2017-12-13T07:16:35.842Z,-0.02
2017-12-13T07:17:45.787Z,-0.06
2017-12-13T07:18:55.721Z,-0.1
2017-12-13T07:20:04.892Z,-0.07
2017-12-13T07:21:14.575Z,-0.03
2017-12-13T07:22:24.262Z,-0.06
2017-12-13T07:23:34.269Z,0.02
2017-12-13T07:24:43.960Z,0
2017-12-13T07:25:53.649Z,0
2017-12-13T07:27:03.346Z,0.05
2017-12-13T07:28:13.290Z,0
2017-12-13T07:29:23.011Z,0.11
2017-12-13T07:30:32.976Z,0.05
2017-12-13T07:31:42.426Z,0.02
2017-12-13T07:32:52.381Z,0.01
2017-12-13T07:34:02.097Z,0.02
2017-12-13T07:35:12.049Z,0.09
2017-12-13T07:36:21.998Z,0.09
2017-12-13T07:37:31.697Z,0.15
2017-12-13T07:38:41.645Z,0.09
2017-12-13T07:39:51.336Z,0.13
2017-12-13T07:41:01.291Z,0.18
2017-12-13T07:42:11.044Z,0.15
2017-12-13T07:43:20.845Z,0.26
2017-12-13T07:44:30.806Z,0.34
2017-12-13T07:45:40.261Z,0.47
2017-12-13T07:46:49.962Z,0.49
2017-12-13T07:47:59.665Z,0.51
2017-12-13T07:49:09.660Z,0.63
2017-12-13T07:50:19.366Z,0.71
2017-12-13T07:51:29.335Z,0.73
2017-12-13T07:52:39.042Z,0.81
2017-12-13T07:53:48.474Z,0.91
2017-12-13T07:54:57.663Z,0.91
2017-12-13T07:56:07.606Z,0.95
2017-12-13T07:57:17.558Z,1.03
2017-12-13T07:58:27.545Z,1.02
2017-12-13T07:59:36.997Z,1.2
2017-12-13T08:00:46.690Z,1.09
2017-12-13T08:01:56.653Z,1.16
2017-12-13T08:03:06.607Z,1.25
2017-12-13T08:04:16.578Z,1.31
2017-12-13T08:05:26.547Z,1.36
2017-12-13T08:06:36.230Z,1.38
2017-12-13T08:07:45.698Z,1.52
2017-12-13T08:08:55.167Z,1.49
2017-12-13T08:10:05.156Z,1.52
2017-12-13T08:11:14.606Z,1.52
2017-12-13T08:12:24.558Z,1.64
2017-12-13T08:13:34.520Z,1.64
2017-12-13T08:14:44.473Z,1.7
2017-12-13T08:15:54.432Z,1.74
2017-12-13T08:17:04.129Z,1.81
2017-12-13T08:18:20.667Z,1.78
2017-12-13T08:19:29.866Z,1.85
2017-12-13T08:20:39.809Z,1.95
2017-12-13T08:21:49.781Z,1.95
2017-12-13T08:22:59.480Z,1.92
2017-12-13T08:24:09.186Z,1.92
2017-12-13T08:25:18.432Z,2
2017-12-13T08:26:28.110Z,1.98
2017-12-13T08:27:37.560Z,2.05
2017-12-13T08:28:47.036Z,2.08
2017-12-13T08:29:56.990Z,2.07
2017-12-13T08:31:06.739Z,2.12
2017-12-13T08:32:16.522Z,2.04
2017-12-13T08:33:26.475Z,2.01
2017-12-13T08:34:35.916Z,2.08
2017-12-13T08:35:45.856Z,2.05
2017-12-13T08:36:55.289Z,2.26
2017-12-13T08:38:04.981Z,2.37
2017-12-13T08:39:14.403Z,2.33
2017-12-13T08:40:24.346Z,2.46
2017-12-13T08:41:34.303Z,2.52
2017-12-13T08:42:44.267Z,2.51
2017-12-13T08:43:53.736Z,2.62
2017-12-13T08:45:03.720Z,2.57
2017-12-13T08:46:13.673Z,2.55
2017-12-13T08:47:23.641Z,2.33
2017-12-13T08:48:33.341Z,2.43
2017-12-13T08:49:43.302Z,2.34
2017-12-13T08:50:52.740Z,2.3
2017-12-13T08:52:02.449Z,2.3
2017-12-13T08:53:12.143Z,2.25
2017-12-13T08:54:21.851Z,2.28
2017-12-13T08:55:31.336Z,2.33
2017-12-13T08:56:41.028Z,2.32
2017-12-13T08:57:50.976Z,2.33
2017-12-13T08:59:00.938Z,2.34
2017-12-13T09:00:10.900Z,2.5
2017-12-13T09:01:20.852Z,2.59
2017-12-13T09:02:30.074Z,2.79
2017-12-13T09:03:40.049Z,2.77
2017-12-13T09:04:49.513Z,2.79
2017-12-13T09:05:59.474Z,2.82
2017-12-13T09:07:08.924Z,2.76
2017-12-13T09:08:18.633Z,2.95
2017-12-13T09:09:28.645Z,2.97
2017-12-13T09:10:38.363Z,2.97
2017-12-13T09:11:48.564Z,2.88
2017-12-13T09:12:58.543Z,2.88
2017-12-13T09:14:07.992Z,2.8
2017-12-13T09:15:17.660Z,2.87
2017-12-13T09:16:27.643Z,2.91
2017-12-13T09:17:37.618Z,2.9
2017-12-13T09:18:47.619Z,2.98
2017-12-13T09:19:57.074Z,2.97
2017-12-13T09:21:07.059Z,3.11
2017-12-13T09:22:16.506Z,3.01
2017-12-13T09:23:26.269Z,3.08
2017-12-13T09:24:35.970Z,3.06
2017-12-13T09:25:46.193Z,3.05
2017-12-13T09:26:56.191Z,3
2017-12-13T09:28:05.914Z,2.97
2017-12-13T09:29:15.106Z,2.95
2017-12-13T09:30:25.099Z,2.95
2017-12-13T09:31:35.145Z,3.08
2017-12-13T09:32:44.590Z,3.16
2017-12-13T09:33:54.288Z,3.18
2017-12-13T09:35:03.992Z,3.13
2017-12-13T09:36:13.950Z,3.27
2017-12-13T09:37:23.646Z,3.3
2017-12-13T09:38:33.350Z,3.34
2017-12-13T09:39:43.346Z,3.36
2017-12-13T09:40:53.313Z,3.34
2017-12-13T09:42:03.457Z,3.52
2017-12-13T09:43:12.898Z,3.5
2017-12-13T09:44:22.635Z,3.7
2017-12-13T09:45:32.333Z,3.81
2017-12-13T09:46:42.047Z,3.96
2017-12-13T09:47:51.780Z,4.13
2017-12-13T09:49:01.748Z,4.02
2017-12-13T09:50:11.742Z,3.94
2017-12-13T09:51:21.712Z,3.96
2017-12-13T09:52:31.415Z,4.02
2017-12-13T09:53:41.422Z,3.96
2017-12-13T09:54:51.431Z,3.94
2017-12-13T09:56:00.343Z,3.95
2017-12-13T09:57:10.302Z,4.04
2017-12-13T09:58:19.758Z,4.12
2017-12-13T09:59:29.726Z,4.03
2017-12-13T10:00:38.963Z,4.1
2017-12-13T10:01:48.407Z,4.24
2017-12-13T10:02:58.310Z,4.38
2017-12-13T10:04:08.014Z,4.38
2017-12-13T10:05:17.719Z,4.49
2017-12-13T10:06:27.426Z,4.38
2017-12-13T10:07:37.403Z,4.38
2017-12-13T10:08:47.179Z,4.27
2017-12-13T10:09:57.145Z,4.24
2017-12-13T10:11:06.839Z,4.14
2017-12-13T10:12:16.542Z,4.12
2017-12-13T10:13:26.501Z,4.03
2017-12-13T10:14:35.685Z,3.94
2017-12-13T10:15:45.117Z,3.85
2017-12-13T10:16:54.803Z,3.82
2017-12-13T10:18:04.783Z,3.71
2017-12-13T10:19:13.954Z,3.68
2017-12-13T10:20:23.915Z,3.49
2017-12-13T10:21:33.861Z,3.46
2017-12-13T10:22:43.834Z,3.5
2017-12-13T10:23:53.694Z,3.5
2017-12-13T10:25:03.199Z,3.45
2017-12-13T10:26:12.909Z,3.49
2017-12-13T10:27:22.605Z,3.43
2017-12-13T10:28:32.043Z,3.52
2017-12-13T10:29:42.003Z,3.67
2017-12-13T10:30:51.974Z,3.71
2017-12-13T10:32:01.665Z,3.89
2017-12-13T10:33:11.376Z,3.81
2017-12-13T10:34:21.327Z,3.95
2017-12-13T10:35:31.025Z,4.04
2017-12-13T10:36:40.736Z,4.03
2017-12-13T10:37:50.696Z,4.34
2017-12-13T10:38:59.877Z,4.24
2017-12-13T10:40:09.062Z,4.38
2017-12-13T10:41:18.763Z,4.52
2017-12-13T10:42:28.731Z,4.74
2017-12-13T10:43:38.441Z,4.87
2017-12-13T10:44:48.132Z,4.75
2017-12-13T10:45:57.820Z,4.66
2017-12-13T10:47:07.789Z,4.83
2017-12-13T10:48:17.769Z,4.84
2017-12-13T10:49:27.722Z,4.98
2017-12-13T10:50:37.414Z,4.94
2017-12-13T10:51:47.390Z,4.67
2017-12-13T10:52:56.838Z,4.63
2017-12-13T10:54:06.540Z,4.67
2017-12-13T10:55:16.247Z,4.52
2017-12-13T10:56:26.425Z,4.74
2017-12-13T10:57:36.386Z,4.63
2017-12-13T10:58:46.148Z,4.39
2017-12-13T10:59:56.253Z,4.4
2017-12-13T11:01:05.767Z,4.32
2017-12-13T11:02:15.553Z,4.36
2017-12-13T11:03:25.296Z,4.36
2017-12-13T11:04:35.264Z,4.43
2017-12-13T11:05:44.944Z,4.42
2017-12-13T11:06:54.389Z,4.6
2017-12-13T11:08:04.352Z,4.66
2017-12-13T11:09:14.320Z,4.74
2017-12-13T11:10:24.283Z,4.75
2017-12-13T11:11:34.258Z,4.63
2017-12-13T11:12:44.236Z,4.53
2017-12-13T11:13:53.666Z,4.52
2017-12-13T11:15:03.618Z,4.39
2017-12-13T11:16:13.317Z,4.32
2017-12-13T11:17:23.021Z,4.32
2017-12-13T11:18:32.728Z,4.42
2017-12-13T11:19:42.712Z,4.43
2017-12-13T11:20:52.687Z,4.52
2017-12-13T11:22:02.658Z,4.71
2017-12-13T11:23:12.391Z,5.01
2017-12-13T11:24:22.088Z,4.92
2017-12-13T11:25:31.785Z,4.98
2017-12-13T11:26:41.503Z,5.23
2017-12-13T11:27:51.270Z,5.26
2017-12-13T11:29:01.139Z,5.44
2017-12-13T11:30:11.182Z,5.47
2017-12-13T11:31:20.710Z,5.31
2017-12-13T11:32:30.726Z,5.29
2017-12-13T11:33:40.274Z,5.43
2017-12-13T11:34:50.111Z,5.55
2017-12-13T11:36:00.180Z,5.7
2017-12-13T11:37:10.235Z,5.94
2017-12-13T11:38:19.766Z,6.07
2017-12-13T11:39:29.781Z,6.02
2017-12-13T11:40:39.735Z,5.84
2017-12-13T11:41:49.488Z,5.74
2017-12-13T11:42:59.471Z,5.8
2017-12-13T11:44:09.197Z,5.95
2017-12-13T11:45:19.237Z,5.92
2017-12-13T11:46:29.254Z,5.81
2017-12-13T11:47:39.237Z,5.77
2017-12-13T11:48:48.945Z,5.77
2017-12-13T11:49:58.929Z,5.7
2017-12-13T11:51:08.643Z,5.77
2017-12-13T11:52:18.620Z,5.9
2017-12-13T11:53:28.615Z,6.05
2017-12-13T11:54:38.069Z,6.16
2017-12-13T11:55:47.791Z,6.16
2017-12-13T11:56:57.521Z,6.26
2017-12-13T11:58:07.296Z,6.2
2017-12-13T11:59:17.327Z,6.13
2017-12-13T12:00:27.055Z,6.12
2017-12-13T12:01:37.016Z,6.19
2017-12-13T12:02:46.740Z,6.15
2017-12-13T12:03:56.458Z,6.05
2017-12-13T12:05:06.436Z,5.84
2017-12-13T12:06:16.404Z,5.74
2017-12-13T12:07:26.404Z,5.81
2017-12-13T12:08:35.850Z,5.83
2017-12-13T12:09:45.317Z,6.01
2017-12-13T12:10:55.265Z,6.07
2017-12-13T12:12:04.968Z,5.9
2017-12-13T12:13:14.651Z,5.72
2017-12-13T12:14:24.348Z,5.67
2017-12-13T12:15:34.316Z,5.69
2017-12-13T12:16:44.287Z,5.62
2017-12-13T12:17:54.285Z,5.49
2017-12-13T12:19:04.010Z,5.33
2017-12-13T12:20:14.005Z,5.26
2017-12-13T12:21:23.709Z,5.16
2017-12-13T12:22:33.665Z,5.12
2017-12-13T12:23:43.107Z,5.15
2017-12-13T12:24:53.071Z,5.18
2017-12-13T12:26:02.774Z,5.04
2017-12-13T12:27:12.802Z,5.18
2017-12-13T12:28:22.768Z,5.16
2017-12-13T12:29:32.989Z,5.15
2017-12-13T12:30:42.947Z,5.23
2017-12-13T12:31:52.908Z,5.22
2017-12-13T12:33:02.848Z,5.25
2017-12-13T12:34:12.557Z,5.26
2017-12-13T12:35:22.243Z,5.36
2017-12-13T12:36:32.201Z,5.37
2017-12-13T12:37:42.177Z,5.33
2017-12-13T12:38:51.604Z,5.4
2017-12-13T12:40:01.302Z,5.49
2017-12-13T12:41:10.998Z,5.56
2017-12-13T12:42:20.949Z,5.69
2017-12-13T12:43:30.891Z,5.7
2017-12-13T12:44:40.549Z,5.55
2017-12-13T12:45:51.012Z,5.69
2017-12-13T12:47:01.104Z,5.54
2017-12-13T12:48:10.986Z,5.55
2017-12-13T12:49:20.983Z,5.72
2017-12-13T12:50:30.667Z,5.58
2017-12-13T12:51:40.633Z,5.62
2017-12-13T12:52:50.568Z,5.79
2017-12-13T12:54:00.508Z,5.73
2017-12-13T12:55:09.925Z,5.76
2017-12-13T12:56:19.610Z,5.76
2017-12-13T12:57:29.568Z,5.79
2017-12-13T12:58:39.266Z,5.64
2017-12-13T12:59:49.224Z,5.67
2017-12-13T13:00:58.932Z,5.8
2017-12-13T13:02:08.363Z,5.67
2017-12-13T13:03:17.546Z,5.65
2017-12-13T13:04:27.001Z,5.7
2017-12-13T13:05:36.975Z,5.69
2017-12-13T13:06:46.920Z,5.67
2017-12-13T13:07:56.883Z,5.79
2017-12-13T13:09:07.089Z,5.9
2017-12-13T13:10:17.064Z,6.01
2017-12-13T13:11:26.751Z,5.88
2017-12-13T13:12:36.451Z,5.84
2017-12-13T13:13:46.444Z,5.74
2017-12-13T13:14:56.390Z,5.67
2017-12-13T13:16:05.831Z,5.7
2017-12-13T13:17:15.785Z,5.73
2017-12-13T13:18:25.481Z,5.67
2017-12-13T13:19:35.177Z,5.7
2017-12-13T13:20:45.130Z,5.72
2017-12-13T13:21:55.104Z,5.64
2017-12-13T13:23:04.583Z,5.4
2017-12-13T13:24:14.566Z,5.46
2017-12-13T13:25:24.577Z,5.38
2017-12-13T13:26:34.289Z,5.41
2017-12-13T13:27:43.721Z,5.41
2017-12-13T13:28:53.423Z,5.36
2017-12-13T13:30:03.178Z,5.29
2017-12-13T13:31:13.127Z,5.28
2017-12-13T13:32:22.817Z,5.13
2017-12-13T13:33:32.765Z,5.18
2017-12-13T13:34:42.450Z,5.01
2017-12-13T13:35:51.901Z,5.02
2017-12-13T13:37:01.586Z,5.02
2017-12-13T13:38:11.528Z,5.01
2017-12-13T13:39:21.494Z,4.87
2017-12-13T13:40:31.434Z,4.86
2017-12-13T13:41:41.392Z,4.89
2017-12-13T13:42:51.077Z,4.89
2017-12-13T13:44:00.775Z,4.92
2017-12-13T13:45:10.228Z,4.74
2017-12-13T13:46:19.954Z,4.61
2017-12-13T13:47:29.911Z,4.64
2017-12-13T13:48:39.611Z,4.6
2017-12-13T13:49:49.293Z,4.57
2017-12-13T13:50:59.247Z,4.57
2017-12-13T13:52:08.935Z,4.56
2017-12-13T13:53:18.881Z,4.58
2017-12-13T13:54:28.579Z,4.5
2017-12-13T13:55:38.538Z,4.49
2017-12-13T13:56:48.271Z,4.46
2017-12-13T13:57:58.233Z,4.39
2017-12-13T13:59:07.945Z,4.46
2017-12-13T14:00:17.916Z,4.39
2017-12-13T14:01:27.630Z,4.4
2017-12-13T14:02:37.619Z,4.42
2017-12-13T14:03:47.048Z,4.4
2017-12-13T14:04:56.498Z,4.46
2017-12-13T14:06:06.447Z,4.45
2017-12-13T14:07:15.635Z,4.45
2017-12-13T14:08:25.699Z,4.32
2017-12-13T14:09:35.394Z,4.31
2017-12-13T14:10:45.107Z,4.45
2017-12-13T14:11:54.556Z,4.4
2017-12-13T14:13:04.252Z,4.34
2017-12-13T14:14:13.941Z,4.31
2017-12-13T14:15:23.899Z,4.4
2017-12-13T14:16:33.849Z,4.38
2017-12-13T14:17:43.806Z,4.3
2017-12-13T14:18:53.254Z,4.34
2017-12-13T14:20:03.200Z,4.38
2017-12-13T14:21:13.138Z,4.21
2017-12-13T14:22:22.832Z,4.28
2017-12-13T14:23:32.583Z,4.25
2017-12-13T14:24:42.539Z,4.22
2017-12-13T14:25:51.986Z,4.24
2017-12-13T14:27:01.694Z,4.16
2017-12-13T14:28:11.653Z,4.2
2017-12-13T14:29:21.353Z,4.2
2017-12-13T14:30:31.062Z,4.2
2017-12-13T14:31:40.779Z,4.2
2017-12-13T14:32:50.225Z,4.21
2017-12-13T14:34:00.188Z,4.21
2017-12-13T14:35:09.635Z,4.16
2017-12-13T14:36:18.825Z,4.21
2017-12-13T14:37:28.545Z,4.1
2017-12-13T14:38:38.534Z,4.1
2017-12-13T14:39:48.511Z,4.03
2017-12-13T14:40:58.492Z,4
2017-12-13T14:42:08.463Z,4.1
2017-12-13T14:43:18.162Z,4.14
2017-12-13T14:44:28.185Z,4
2017-12-13T14:45:38.199Z,4.07
2017-12-13T14:46:47.900Z,4.02
2017-12-13T14:47:57.604Z,4.03
2017-12-13T14:49:07.579Z,4.02
2017-12-13T14:50:17.592Z,3.99
2017-12-13T14:51:27.280Z,3.96
2017-12-13T14:52:37.233Z,4.03
2017-12-13T14:53:46.419Z,4.07
2017-12-13T14:54:56.380Z,4.02
2017-12-13T14:56:06.065Z,3.99
2017-12-13T14:57:15.254Z,4.06
2017-12-13T14:58:25.287Z,3.95
2017-12-13T14:59:35.241Z,3.95
2017-12-13T15:00:45.219Z,3.99
2017-12-13T15:01:54.408Z,4
2017-12-13T15:03:04.121Z,4.02
2017-12-13T15:04:14.073Z,3.99
2017-12-13T15:05:23.779Z,4.04
2017-12-13T15:06:33.540Z,3.99
2017-12-13T15:07:43.233Z,3.92
2017-12-13T15:08:52.943Z,4
2017-12-13T15:10:02.912Z,3.96
2017-12-13T15:11:12.874Z,3.94
2017-12-13T15:12:22.839Z,3.86
2017-12-13T15:13:32.264Z,3.91
2017-12-13T15:14:41.958Z,3.81
2017-12-13T15:15:51.639Z,3.84
2017-12-13T15:17:01.642Z,4
2017-12-13T15:18:11.339Z,3.82
2017-12-13T15:19:20.783Z,3.88
2017-12-13T15:20:30.749Z,3.96
2017-12-13T15:21:40.427Z,3.89
2017-12-13T15:22:50.135Z,3.89
2017-12-13T15:23:59.831Z,3.88
2017-12-13T15:25:09.270Z,3.77
2017-12-13T15:26:19.223Z,3.91
2017-12-13T15:27:28.769Z,3.88
2017-12-13T15:28:38.725Z,3.86
2017-12-13T15:29:48.426Z,3.84
2017-12-13T15:30:58.363Z,3.82
2017-12-13T15:32:07.825Z,3.78